Time;durP1;ratioP1;P1;durP2;ratioP2;P2;SDS_P1;SDS_P2;PMS_P1;PMS_P2;Temp;Humidity;BMP_temperature;BMP_pressure;BME280_temperature;BME280_humidity;BME280_pressure;Samples;Min_cycle;Max_cycle;Signal;HPM_P1;HPM_P2
2022/09/14 00:00:43;;;;;;;2.90;1.85;;;13.50;99.90;;;;;;5048040;28;20021;-45
2022/09/14 00:03:09;;;;;;;6.28;1.80;;;13.50;99.90;;;;;;5040049;28;20467;-46
2022/09/14 00:05:35;;;;;;;4.97;2.05;;;13.50;99.90;;;;;;5040247;28;20119;-45
2022/09/14 00:08:01;;;;;;;4.68;1.90;;;13.40;99.90;;;;;;5042325;28;20033;-46
2022/09/14 00:10:26;;;;;;;5.40;1.77;;;13.40;99.90;;;;;;5040970;28;20056;-46
2022/09/14 00:12:51;;;;;;;7.57;2.05;;;13.40;99.90;;;;;;5046344;28;20041;-47
2022/09/14 00:15:17;;;;;;;4.50;1.80;;;13.40;99.90;;;;;;5040408;28;20438;-45
2022/09/14 00:17:42;;;;;;;3.83;1.50;;;13.40;99.90;;;;;;5046591;28;20474;-46
2022/09/14 00:20:08;;;;;;;6.03;2.13;;;13.30;99.90;;;;;;5039125;28;20045;-45
2022/09/14 00:22:34;;;;;;;6.28;2.17;;;13.30;99.90;;;;;;5049126;28;20079;-46
2022/09/14 00:24:59;;;;;;;8.30;2.88;;;13.20;99.90;;;;;;5042557;28;20033;-45
2022/09/14 00:27:25;;;;;;;3.45;1.65;;;13.20;99.90;;;;;;5041194;28;20078;-45
2022/09/14 00:29:50;;;;;;;6.07;1.90;;;13.10;99.90;;;;;;5045538;28;20031;-44
2022/09/14 00:32:16;;;;;;;7.43;2.40;;;13.10;99.90;;;;;;5038580;28;20506;-46
2022/09/14 00:34:41;;;;;;;4.28;2.08;;;13.10;99.90;;;;;;5048739;28;20021;-45
2022/09/14 00:37:07;;;;;;;6.57;1.92;;;13.10;99.90;;;;;;5038431;28;20049;-45
2022/09/14 00:39:32;;;;;;;6.60;2.28;;;13.10;99.90;;;;;;5049726;28;20033;-46
2022/09/14 00:41:58;;;;;;;7.93;2.72;;;13.00;99.90;;;;;;5047445;28;20552;-46
2022/09/14 00:44:23;;;;;;;4.35;2.38;;;13.10;99.90;;;;;;5040673;28;20021;-46
2022/09/14 00:46:54;;;;;;;3.42;2.05;;;13.00;99.90;;;;;;5049352;28;20043;-45
2022/09/14 00:49:25;;;;;;;9.60;2.65;;;13.00;99.90;;;;;;5039643;28;20171;-45
2022/09/14 00:51:58;;;;;;;5.45;1.85;;;12.90;99.90;;;;;;5044993;28;20029;-46
2022/09/14 00:54:23;;;;;;;4.40;1.90;;;13.00;99.90;;;;;;5048010;28;20024;-45
2022/09/14 00:56:50;;;;;;;6.35;2.47;;;12.90;99.90;;;;;;5048341;28;20025;-45
2022/09/14 00:59:22;;;;;;;12.10;3.28;;;12.90;99.90;;;;;;5049214;28;20428;-45
2022/09/14 01:01:48;;;;;;;8.55;2.80;;;13.00;99.90;;;;;;5049515;28;20036;-46
2022/09/14 01:04:13;;;;;;;8.52;2.65;;;13.00;99.90;;;;;;5043820;28;20108;-45
2022/09/14 01:06:45;;;;;;;8.60;2.88;;;13.10;99.90;;;;;;5041075;28;20052;-45
2022/09/14 01:09:38;;;;;;;8.82;2.90;;;13.10;99.90;;;;;;5045184;28;20458;-45
2022/09/14 01:12:22;;;;;;;8.63;2.50;;;13.10;99.90;;;;;;5040950;28;20374;-45
2022/09/14 01:15:07;;;;;;;14.18;2.20;;;13.20;99.90;;;;;;5046722;28;20013;-44
2022/09/14 01:17:38;;;;;;;12.55;2.60;;;13.20;99.90;;;;;;5037623;28;20091;-46
2022/09/14 01:20:25;;;;;;;13.23;3.38;;;13.20;99.90;;;;;;5043364;28;20066;-45
2022/09/14 01:23:09;;;;;;;13.60;3.03;;;13.30;99.90;;;;;;5044100;28;20013;-46
2022/09/14 01:26:00;;;;;;;8.10;2.63;;;13.30;99.90;;;;;;5042114;28;20418;-46
2022/09/14 01:28:58;;;;;;;8.10;3.40;;;13.30;99.90;;;;;;5036658;28;20112;-47
2022/09/14 01:31:49;;;;;;;15.23;2.33;;;13.30;99.90;;;;;;5042305;28;20386;-45
2022/09/14 01:34:17;;;;;;;10.20;2.30;;;13.20;99.90;;;;;;5047727;28;20041;-44
2022/09/14 01:36:50;;;;;;;16.95;2.85;;;13.20;99.90;;;;;;5045111;28;20052;-45
2022/09/14 01:39:18;;;;;;;12.55;3.97;;;13.20;99.90;;;;;;5044004;28;20039;-45
2022/09/14 01:41:45;;;;;;;8.55;2.67;;;13.20;99.90;;;;;;5052318;28;20029;-45
2022/09/14 01:44:19;;;;;;;9.57;2.83;;;13.30;99.90;;;;;;5043789;28;20547;-47
2022/09/14 01:46:49;;;;;;;11.20;2.47;;;13.20;99.90;;;;;;5046500;28;20044;-45
2022/09/14 01:49:26;;;;;;;9.73;3.40;;;13.20;99.90;;;;;;5047192;28;20033;-45
2022/09/14 01:51:58;;;;;;;9.35;2.53;;;13.20;99.90;;;;;;5043870;28;20116;-46
2022/09/14 01:54:27;;;;;;;15.95;2.67;;;13.20;99.90;;;;;;5047076;28;20378;-48
2022/09/14 01:57:17;;;;;;;10.65;2.90;;;13.20;99.90;;;;;;5043423;28;20505;-45
2022/09/14 01:59:44;;;;;;;6.57;2.45;;;13.20;99.90;;;;;;5051527;28;20058;-46
2022/09/14 02:02:22;;;;;;;10.23;2.67;;;13.10;99.90;;;;;;5049211;28;20032;-47
2022/09/14 02:05:02;;;;;;;17.23;3.05;;;13.20;99.90;;;;;;5039532;28;20079;-45
2022/09/14 02:07:28;;;;;;;20.37;4.07;;;13.20;99.90;;;;;;5011624;28;20380;-46
2022/09/14 02:09:54;;;;;;;12.45;2.67;;;13.10;99.90;;;;;;5035067;28;20049;-46
2022/09/14 02:12:21;;;;;;;7.03;2.45;;;13.10;99.90;;;;;;5049270;28;20029;-45
2022/09/14 02:14:49;;;;;;;11.88;2.83;;;13.10;99.90;;;;;;5040219;28;20013;-46
2022/09/14 02:17:14;;;;;;;11.52;3.38;;;13.10;99.90;;;;;;5048390;28;20108;-45
2022/09/14 02:19:46;;;;;;;9.07;3.47;;;13.10;99.90;;;;;;5041939;28;20622;-45
2022/09/14 02:22:11;;;;;;;8.95;3.05;;;13.10;99.90;;;;;;5049802;28;20032;-45
2022/09/14 02:24:38;;;;;;;10.02;2.90;;;13.10;99.90;;;;;;5041390;28;20036;-46
2022/09/14 02:27:05;;;;;;;6.60;3.15;;;13.10;99.90;;;;;;5042228;28;20025;-48
2022/09/14 02:29:30;;;;;;;8.82;3.03;;;13.00;99.90;;;;;;5048735;28;20029;-47
2022/09/14 02:32:06;;;;;;;8.88;3.13;;;13.00;99.90;;;;;;5042557;28;20025;-47
2022/09/14 02:34:50;;;;;;;8.02;2.60;;;13.00;99.90;;;;;;5045083;28;20379;-46
2022/09/14 02:37:18;;;;;;;11.32;3.70;;;13.00;99.90;;;;;;5041306;28;20022;-47
2022/09/14 02:39:51;;;;;;;6.90;3.50;;;13.00;99.90;;;;;;5044161;28;20083;-49
2022/09/14 02:42:33;;;;;;;4.82;2.60;;;13.00;99.90;;;;;;5040204;28;20029;-45
2022/09/14 02:45:10;;;;;;;5.15;2.35;;;13.00;99.90;;;;;;5047243;28;20155;-48
2022/09/14 02:48:00;;;;;;;12.25;3.15;;;13.00;99.90;;;;;;5032507;28;20032;-48
2022/09/14 02:50:56;;;;;;;10.05;2.90;;;13.00;99.90;;;;;;5029994;28;20040;-46
2022/09/14 02:53:36;;;;;;;8.48;2.90;;;12.90;99.90;;;;;;5041642;28;20529;-46
2022/09/14 02:56:07;;;;;;;6.80;2.92;;;12.90;99.90;;;;;;5044121;28;20450;-49
2022/09/14 02:58:34;;;;;;;;;;;12.90;99.90;;;;;;5032822;28;20163;-46
2022/09/14 03:00:59;;;;;;;15.05;4.22;;;12.80;99.90;;;;;;5017683;28;20523;-45
2022/09/14 03:03:25;;;;;;;11.40;3.42;;;12.80;99.90;;;;;;5041215;28;20028;-45
2022/09/14 03:05:50;;;;;;;8.93;3.33;;;12.80;99.90;;;;;;5050312;28;20068;-45
2022/09/14 03:08:16;;;;;;;5.82;2.85;;;12.80;99.90;;;;;;5040436;28;20471;-45
2022/09/14 03:10:42;;;;;;;14.07;3.55;;;12.80;99.90;;;;;;5043942;28;20242;-45
2022/09/14 03:13:08;;;;;;;11.25;3.70;;;12.80;99.90;;;;;;5043620;28;20013;-47
2022/09/14 03:15:34;;;;;;;9.23;3.22;;;12.80;99.90;;;;;;5035938;28;20368;-45
2022/09/14 03:18:00;;;;;;;9.65;3.42;;;12.80;99.90;;;;;;5030681;28;20045;-45
2022/09/14 03:20:28;;;;;;;15.98;4.65;;;12.90;99.90;;;;;;5037567;28;20026;-45
2022/09/14 03:22:54;;;;;;;8.73;3.15;;;12.90;99.90;;;;;;5045591;28;20028;-45
2022/09/14 03:25:21;;;;;;;7.90;3.40;;;12.90;99.90;;;;;;5041277;28;20431;-46
2022/09/14 03:27:52;;;;;;;7.40;2.72;;;12.90;99.90;;;;;;5044962;28;20107;-45
2022/09/14 03:30:18;;;;;;;7.63;3.35;;;12.90;99.90;;;;;;5042402;28;20457;-45
2022/09/14 03:32:44;;;;;;;11.00;3.00;;;12.90;99.90;;;;;;5042639;28;20048;-45
2022/09/14 03:35:10;;;;;;;11.90;3.25;;;12.90;99.90;;;;;;5044113;28;20167;-45
2022/09/14 03:37:37;;;;;;;13.70;3.78;;;12.90;99.90;;;;;;5043315;28;20461;-46
2022/09/14 03:40:04;;;;;;;20.42;3.83;;;12.90;99.90;;;;;;5044991;28;20110;-49
2022/09/14 03:42:29;;;;;;;10.43;3.35;;;12.90;99.90;;;;;;5041790;28;20398;-45
2022/09/14 03:44:55;;;;;;;6.05;2.95;;;12.90;99.90;;;;;;5039368;28;20014;-45
2022/09/14 03:47:20;;;;;;;8.57;3.13;;;12.80;99.90;;;;;;5037841;28;20432;-45
2022/09/14 03:49:46;;;;;;;10.23;2.88;;;12.80;99.90;;;;;;5035645;28;20019;-45
2022/09/14 03:52:11;;;;;;;11.23;2.92;;;12.80;99.90;;;;;;5041393;28;20017;-45
2022/09/14 03:54:37;;;;;;;6.25;3.13;;;12.80;99.90;;;;;;5047034;28;20013;-44
2022/09/14 03:57:02;;;;;;;5.57;2.83;;;12.70;99.90;;;;;;5048699;28;20087;-47
2022/09/14 03:59:28;;;;;;;8.25;3.00;;;12.80;99.90;;;;;;5042369;28;20029;-46
2022/09/14 04:01:53;;;;;;;7.25;3.63;;;12.70;99.90;;;;;;5041641;28;20036;-45
2022/09/14 04:04:19;;;;;;;9.52;3.05;;;12.80;99.90;;;;;;5041845;28;20486;-44
2022/09/14 04:06:44;;;;;;;7.95;2.80;;;12.70;99.90;;;;;;5041475;28;20025;-45
2022/09/14 04:09:10;;;;;;;8.38;3.05;;;12.70;99.90;;;;;;5049388;28;20480;-46
2022/09/14 04:11:36;;;;;;;10.55;3.50;;;12.70;99.90;;;;;;5042688;28;20603;-45
2022/09/14 04:14:03;;;;;;;9.77;3.53;;;12.70;99.90;;;;;;5036076;28;20080;-46
2022/09/14 04:16:29;;;;;;;5.43;2.78;;;12.60;99.90;;;;;;5023060;28;20016;-47
2022/09/14 04:18:55;;;;;;;7.90;3.00;;;12.60;99.90;;;;;;5024852;28;20025;-46
2022/09/14 04:21:23;;;;;;;11.88;2.92;;;12.60;99.90;;;;;;5021991;28;20047;-47
2022/09/14 04:23:52;;;;;;;6.97;3.30;;;12.50;99.90;;;;;;5025597;28;20430;-47
2022/09/14 04:26:19;;;;;;;5.05;2.90;;;12.50;99.90;;;;;;5018074;28;20025;-46
2022/09/14 04:28:45;;;;;;;8.30;2.97;;;12.40;99.90;;;;;;5023872;28;20067;-45
2022/09/14 04:31:11;;;;;;;9.48;3.00;;;12.40;99.90;;;;;;5021894;28;20531;-46
2022/09/14 04:33:39;;;;;;;11.85;3.42;;;12.40;99.90;;;;;;5040428;28;20088;-47
2022/09/14 04:36:07;;;;;;;6.90;3.17;;;12.40;99.90;;;;;;5045917;28;20235;-46
2022/09/14 04:38:34;;;;;;;5.88;3.30;;;12.30;99.90;;;;;;5039566;28;20027;-46
2022/09/14 04:40:59;;;;;;;6.85;3.17;;;12.30;99.90;;;;;;5013421;28;20396;-46
2022/09/14 04:43:25;;;;;;;8.60;3.58;;;12.20;99.90;;;;;;5040275;28;20021;-48
2022/09/14 04:45:52;;;;;;;9.43;3.60;;;12.20;99.90;;;;;;5048619;28;20033;-48
2022/09/14 04:48:18;;;;;;;4.28;2.55;;;12.10;99.90;;;;;;5040609;28;20128;-49
2022/09/14 04:50:44;;;;;;;9.40;4.07;;;12.10;99.90;;;;;;5043813;28;20021;-46
2022/09/14 04:53:10;;;;;;;7.80;2.95;;;12.10;99.90;;;;;;5044969;28;20014;-48
2022/09/14 04:55:36;;;;;;;7.28;3.72;;;12.00;99.90;;;;;;5044165;28;20025;-46
2022/09/14 04:58:02;;;;;;;7.80;3.30;;;12.00;99.90;;;;;;5046384;28;20635;-46
2022/09/14 05:00:28;;;;;;;6.88;3.42;;;11.90;99.90;;;;;;5044261;28;20569;-49
2022/09/14 05:02:54;;;;;;;8.75;3.47;;;11.90;99.90;;;;;;5049662;28;20033;-45
2022/09/14 05:05:19;;;;;;;4.93;3.17;;;11.90;99.90;;;;;;5042829;28;20500;-46
2022/09/14 05:07:45;;;;;;;5.38;2.85;;;11.90;99.90;;;;;;5051922;28;20162;-47
2022/09/14 05:10:10;;;;;;;9.82;3.38;;;11.80;99.90;;;;;;5042090;28;20025;-46
2022/09/14 05:12:36;;;;;;;5.75;3.03;;;11.90;99.90;;;;;;5045411;28;20064;-46
2022/09/14 05:15:01;;;;;;;7.55;2.97;;;11.90;99.90;;;;;;5048488;28;20025;-46
2022/09/14 05:17:27;;;;;;;6.63;3.28;;;11.90;99.90;;;;;;5044994;28;20538;-46
2022/09/14 05:19:52;;;;;;;7.57;4.45;;;11.90;99.90;;;;;;5050438;28;20036;-46
2022/09/14 05:22:21;;;;;;;18.10;4.55;;;11.90;99.90;;;;;;5044366;28;20052;-46
2022/09/14 05:24:46;;;;;;;12.68;4.70;;;11.90;99.90;;;;;;5047124;28;20013;-48
2022/09/14 05:27:12;;;;;;;20.17;4.78;;;11.90;99.90;;;;;;5042241;28;20577;-46
2022/09/14 05:29:39;;;;;;;9.13;4.32;;;12.00;99.90;;;;;;5052403;28;20029;-47
2022/09/14 05:32:05;;;;;;;6.30;3.92;;;12.00;99.90;;;;;;5043745;28;20017;-46
2022/09/14 05:34:30;;;;;;;7.00;4.28;;;12.00;99.90;;;;;;5044765;28;20647;-47
2022/09/14 05:36:56;;;;;;;10.80;4.43;;;12.10;99.90;;;;;;5046364;28;20090;-46
2022/09/14 05:39:21;;;;;;;7.38;3.85;;;12.20;99.90;;;;;;5043926;28;20029;-46
2022/09/14 05:41:49;;;;;;;9.60;3.85;;;12.20;99.90;;;;;;5048147;28;20489;-46
2022/09/14 05:44:14;;;;;;;11.35;4.68;;;12.20;99.90;;;;;;5043105;28;20085;-46
2022/09/14 05:46:39;;;;;;;15.95;3.47;;;12.20;99.90;;;;;;5052427;28;20039;-47
2022/09/14 05:49:05;;;;;;;6.30;3.60;;;12.30;99.90;;;;;;5045935;28;20063;-47
2022/09/14 05:51:30;;;;;;;12.35;5.03;;;12.40;99.90;;;;;;5041324;28;20671;-46
2022/09/14 05:53:57;;;;;;;7.07;3.70;;;12.40;99.90;;;;;;5038021;28;20017;-46
2022/09/14 05:56:25;;;;;;;8.18;3.95;;;12.40;99.90;;;;;;5043744;28;20100;-46
2022/09/14 05:58:51;;;;;;;5.80;3.53;;;12.50;99.90;;;;;;5049465;28;20017;-46
2022/09/14 06:01:20;;;;;;;6.78;3.45;;;12.50;99.90;;;;;;5043241;28;20474;-47
2022/09/14 06:03:47;;;;;;;6.25;3.95;;;12.50;99.90;;;;;;5044871;28;20025;-47
2022/09/14 06:06:15;;;;;;;9.70;4.50;;;12.60;99.90;;;;;;5041039;28;20521;-47
2022/09/14 06:08:41;;;;;;;6.07;3.45;;;12.60;99.90;;;;;;5050679;28;20452;-57
2022/09/14 06:11:09;;;;;;;7.43;4.60;;;12.70;99.90;;;;;;5043176;28;20056;-57
2022/09/14 06:13:35;;;;;;;11.27;4.80;;;12.70;99.90;;;;;;5049451;28;20036;-58
2022/09/14 06:16:05;;;;;;;8.88;4.50;;;12.80;99.90;;;;;;5047489;28;20021;-58
2022/09/14 06:18:32;;;;;;;10.55;4.78;;;12.80;99.90;;;;;;5029966;28;20037;-58
2022/09/14 06:20:58;;;;;;;16.33;5.78;;;12.90;99.90;;;;;;5038355;28;20029;-57
2022/09/14 06:23:24;;;;;;;9.63;4.85;;;13.00;99.90;;;;;;5049487;28;20029;-58
2022/09/14 06:25:53;;;;;;;10.02;3.80;;;13.10;99.90;;;;;;5040360;28;20021;-58
2022/09/14 06:28:19;;;;;;;10.23;4.32;;;13.10;99.90;;;;;;5049398;28;20024;-58
2022/09/14 06:30:44;;;;;;;10.73;4.18;;;13.20;99.90;;;;;;5040362;28;20479;-58
2022/09/14 06:33:10;;;;;;;11.10;4.15;;;13.40;99.90;;;;;;5041262;28;20147;-57
2022/09/14 06:35:35;;;;;;;16.58;5.35;;;13.40;99.90;;;;;;5042878;28;20028;-58
2022/09/14 06:38:01;;;;;;;7.32;3.65;;;13.60;99.90;;;;;;5041704;28;20527;-58
2022/09/14 06:40:27;;;;;;;12.82;4.53;;;13.70;99.90;;;;;;5049747;28;20048;-58
2022/09/14 06:42:52;;;;;;;19.08;3.95;;;13.70;99.90;;;;;;5045160;28;20394;-58
2022/09/14 06:45:18;;;;;;;11.02;4.15;;;13.70;99.90;;;;;;5040001;28;20395;-58
2022/09/14 06:47:43;;;;;;;15.98;4.30;;;13.90;99.90;;;;;;5049136;28;20036;-58
2022/09/14 06:50:09;;;;;;;15.25;4.80;;;13.90;99.90;;;;;;5038383;28;20116;-58
2022/09/14 06:52:35;;;;;;;8.07;3.33;;;14.00;99.90;;;;;;5041322;28;20017;-57
2022/09/14 06:55:01;;;;;;;13.35;4.72;;;14.10;99.90;;;;;;5049335;28;20540;-58
2022/09/14 06:57:27;;;;;;;14.68;4.35;;;14.10;99.90;;;;;;5049804;28;20267;-57
2022/09/14 06:59:53;;;;;;;8.48;3.85;;;14.10;99.90;;;;;;5043601;28;20033;-57
2022/09/14 07:02:18;;;;;;;8.02;3.13;;;14.20;99.90;;;;;;5041020;28;20029;-57
2022/09/14 07:04:44;;;;;;;9.00;3.70;;;14.30;99.90;;;;;;5044267;28;20108;-57
2022/09/14 07:07:09;;;;;;;7.60;3.35;;;14.30;99.90;;;;;;5039665;28;20461;-57
2022/09/14 07:09:35;;;;;;;9.50;3.60;;;14.40;99.90;;;;;;5049329;28;20031;-57
2022/09/14 07:12:01;;;;;;;12.57;3.55;;;14.50;99.90;;;;;;5049086;28;20290;-57
2022/09/14 07:14:26;;;;;;;11.95;3.15;;;14.60;99.90;;;;;;5048918;28;20627;-57
2022/09/14 07:16:52;;;;;;;14.02;3.85;;;14.70;99.90;;;;;;5041386;28;20374;-58
2022/09/14 07:19:18;;;;;;;10.27;4.38;;;14.70;99.90;;;;;;5039918;28;20502;-58
2022/09/14 07:21:43;;;;;;;11.75;5.88;;;14.80;99.90;;;;;;5049607;28;20033;-57
2022/09/14 07:24:11;;;;;;;8.23;3.10;;;14.90;99.90;;;;;;5044509;28;20025;-59
2022/09/14 07:26:38;;;;;;;13.82;3.25;;;15.00;99.90;;;;;;5039625;28;20023;-58
2022/09/14 07:29:06;;;;;;;8.02;2.92;;;15.00;99.90;;;;;;5046988;28;20048;-57
2022/09/14 07:31:40;;;;;;;7.20;2.92;;;15.10;99.90;;;;;;5035545;28;20064;-55
2022/09/14 07:34:06;;;;;;;8.85;2.50;;;15.20;99.90;;;;;;5045861;28;20056;-51
2022/09/14 07:36:33;;;;;;;8.80;2.45;;;15.30;99.90;;;;;;5036529;28;20117;-57
2022/09/14 07:38:59;;;;;;;9.45;2.17;;;15.40;99.90;;;;;;5025484;28;20032;-56
2022/09/14 07:41:27;;;;;;;9.15;3.03;;;15.50;99.90;;;;;;5029822;28;20061;-50
2022/09/14 07:43:55;;;;;;;9.48;2.67;;;15.60;99.90;;;;;;5029821;28;20553;-54
2022/09/14 07:46:22;;;;;;;12.05;3.60;;;15.70;99.90;;;;;;5029712;28;20021;-54
2022/09/14 07:48:53;;;;;;;8.10;2.90;;;15.70;99.90;;;;;;5028992;28;20472;-55
2022/09/14 07:51:19;;;;;;;18.05;2.88;;;15.80;99.90;;;;;;5037022;28;20045;-55
2022/09/14 07:53:45;;;;;;;13.55;6.38;;;15.90;99.90;;;;;;5043138;28;20055;-54
2022/09/14 07:56:12;;;;;;;5.53;3.05;;;16.00;99.90;;;;;;5049918;28;20024;-55
2022/09/14 07:58:38;;;;;;;9.27;2.85;;;16.00;99.90;;;;;;5049704;28;20040;-54
2022/09/14 08:01:10;;;;;;;9.02;2.50;;;16.30;99.90;;;;;;5040188;28;20463;-51
2022/09/14 08:03:37;;;;;;;5.88;2.47;;;16.50;99.90;;;;;;5042338;28;20054;-54
2022/09/14 08:06:05;;;;;;;5.38;2.20;;;16.70;99.90;;;;;;5044170;28;20407;-58
2022/09/14 08:08:36;;;;;;;6.63;2.20;;;16.70;99.90;;;;;;5041702;28;20642;-58
2022/09/14 08:11:09;;;;;;;10.18;2.30;;;16.80;99.90;;;;;;5049032;28;20503;-58
2022/09/14 08:13:37;;;;;;;8.32;2.17;;;17.10;99.90;;;;;;5047280;28;20036;-56
2022/09/14 08:16:03;;;;;;;10.13;2.33;;;17.30;99.90;;;;;;5038428;28;20426;-59
2022/09/14 08:18:30;;;;;;;7.43;2.03;;;17.40;99.90;;;;;;5048467;28;20094;-62
2022/09/14 08:20:56;;;;;;;7.70;2.20;;;17.50;99.90;;;;;;5045013;28;20017;-61
2022/09/14 08:23:22;;;;;;;6.25;2.28;;;17.70;99.90;;;;;;5040019;28;20025;-57
2022/09/14 08:25:48;;;;;;;6.00;2.55;;;17.80;99.90;;;;;;5049307;28;20421;-58
2022/09/14 08:28:13;;;;;;;5.05;2.15;;;18.00;99.90;;;;;;5049051;28;20102;-60
2022/09/14 08:30:40;;;;;;;4.10;2.00;;;18.30;99.90;;;;;;5043824;28;20083;-57
2022/09/14 08:33:05;;;;;;;6.35;1.92;;;18.50;99.90;;;;;;5051465;28;20632;-57
2022/09/14 08:35:31;;;;;;;9.18;2.17;;;18.90;99.90;;;;;;5035962;28;20026;-59
2022/09/14 08:37:56;;;;;;;16.38;2.50;;;19.50;99.90;;;;;;5047119;28;20062;-58
2022/09/14 08:40:22;;;;;;;9.63;2.15;;;20.20;99.90;;;;;;5049589;28;20569;-58
2022/09/14 08:42:50;;;;;;;9.50;1.88;;;20.40;99.90;;;;;;5048670;28;20033;-57
2022/09/14 08:45:16;;;;;;;8.70;2.15;;;21.10;99.90;;;;;;5049953;28;20086;-58
2022/09/14 08:47:42;;;;;;;10.18;2.50;;;22.00;99.90;;;;;;5046813;28;20040;-58
2022/09/14 08:50:17;;;;;;;9.00;2.53;;;22.60;99.30;;;;;;5011677;28;20479;-57
2022/09/14 08:52:44;;;;;;;8.73;2.17;;;23.30;97.20;;;;;;5011097;28;20034;-58
2022/09/14 08:55:34;;;;;;;3.90;1.60;;;23.60;95.80;;;;;;5011554;28;20034;-58
2022/09/14 08:58:13;;;;;;;7.32;2.45;;;24.00;94.90;;;;;;5011897;28;20563;-58
2022/09/14 09:00:44;;;;;;;7.72;1.85;;;24.40;94.10;;;;;;5028020;28;20030;-57
2022/09/14 09:03:47;;;;;;;6.22;2.25;;;24.50;92.20;;;;;;5031552;28;20060;-57
2022/09/14 09:06:18;;;;;;;6.53;2.03;;;24.40;92.00;;;;;;5040601;28;20057;-57
2022/09/14 09:09:24;;;;;;;6.45;2.22;;;24.20;92.10;;;;;;5052392;28;20025;-57
2022/09/14 09:11:51;;;;;;;8.48;2.13;;;24.00;92.70;;;;;;5050714;28;20048;-57
2022/09/14 09:14:34;;;;;;;5.47;1.65;;;23.10;91.50;;;;;;5050474;28;20025;-57
2022/09/14 09:17:04;;;;;;;6.70;1.90;;;22.70;93.40;;;;;;5048729;28;20353;-57
2022/09/14 09:19:52;;;;;;;7.65;1.90;;;22.90;94.30;;;;;;5043243;28;20409;-57
2022/09/14 09:22:22;;;;;;;5.82;1.77;;;22.80;93.10;;;;;;5040455;28;20068;-57
2022/09/14 09:24:53;;;;;;;7.35;1.73;;;22.70;93.30;;;;;;5049714;28;20033;-57
2022/09/14 09:27:19;;;;;;;5.40;2.05;;;22.60;94.10;;;;;;5050180;28;20043;-57
2022/09/14 09:29:44;;;;;;;5.97;1.75;;;22.40;94.30;;;;;;5048952;28;20029;-57
2022/09/14 09:32:23;;;;;;;8.05;2.97;;;22.10;95.00;;;;;;5048547;28;20032;-57
2022/09/14 09:34:49;;;;;;;6.78;2.10;;;21.70;95.20;;;;;;5049509;28;20401;-57
2022/09/14 09:37:17;;;;;;;9.45;2.55;;;21.70;94.70;;;;;;5047957;28;20100;-57
2022/09/14 09:39:43;;;;;;;6.60;1.90;;;21.40;95.00;;;;;;5048054;28;20490;-57
2022/09/14 09:42:23;;;;;;;5.63;2.40;;;21.20;96.00;;;;;;5048896;28;20036;-56
2022/09/14 09:44:54;;;;;;;10.10;1.80;;;21.00;96.00;;;;;;5033830;28;20029;-57
2022/09/14 09:47:48;;;;;;;8.30;1.90;;;20.80;97.00;;;;;;5030004;28;20037;-56
2022/09/14 09:50:19;;;;;;;10.63;3.80;;;20.50;97.10;;;;;;5031439;28;20037;-56
2022/09/14 09:52:55;;;;;;;;;;;20.20;96.90;;;;;;5026583;28;20206;-57
2022/09/14 09:55:25;;;;;;;8.35;2.38;;;20.30;97.30;;;;;;5027656;28;19924;-56
2022/09/14 09:57:52;;;;;;;4.95;1.70;;;20.20;97.40;;;;;;5028865;28;20033;-57
2022/09/14 10:00:23;;;;;;;7.22;1.88;;;20.50;97.20;;;;;;5029265;28;20025;-57
2022/09/14 10:02:50;;;;;;;9.70;1.95;;;21.00;96.50;;;;;;5028064;28;20052;-57
2022/09/14 10:05:15;;;;;;;8.43;2.38;;;20.90;97.50;;;;;;5029075;28;20017;-57
2022/09/14 10:07:57;;;;;;;8.00;2.20;;;20.80;96.30;;;;;;5028195;28;20056;-57
2022/09/14 10:10:38;;;;;;;9.07;1.52;;;20.80;96.00;;;;;;5028142;28;20534;-57
2022/09/14 10:13:14;;;;;;;10.18;2.50;;;20.60;96.70;;;;;;5028879;28;20053;-57
2022/09/14 10:15:41;;;;;;;7.57;1.75;;;20.50;96.70;;;;;;5028204;28;20024;-57
2022/09/14 10:18:10;;;;;;;7.47;1.70;;;20.10;97.40;;;;;;4985043;28;1272597;-57
2022/09/14 10:20:41;;;;;;;9.75;1.90;;;20.30;97.70;;;;;;5037645;28;20067;-57
2022/09/14 10:23:18;;;;;;;8.45;2.00;;;20.40;97.70;;;;;;5047078;28;20433;-57
2022/09/14 10:25:50;;;;;;;6.55;2.00;;;20.60;96.70;;;;;;5050437;28;20035;-57
2022/09/14 10:28:32;;;;;;;7.97;2.10;;;20.80;96.70;;;;;;5049558;28;20033;-57
2022/09/14 10:31:18;;;;;;;7.57;1.85;;;21.00;96.00;;;;;;5049986;28;20023;-56
2022/09/14 10:33:53;;;;;;;5.95;2.20;;;21.10;95.30;;;;;;5049526;28;20048;-57
2022/09/14 10:36:31;;;;;;;8.25;2.05;;;21.40;95.90;;;;;;5049253;28;20021;-57
2022/09/14 10:39:28;;;;;;;7.25;2.05;;;21.60;95.70;;;;;;5040309;28;20112;-57
2022/09/14 10:42:18;;;;;;;8.10;1.65;;;21.30;96.00;;;;;;5033269;28;20018;-57
2022/09/14 10:45:16;;;;;;;7.40;2.28;;;21.30;95.60;;;;;;5029686;28;20044;-57
2022/09/14 10:48:05;;;;;;;4.80;2.00;;;21.20;95.90;;;;;;5028914;28;20042;-57
2022/09/14 10:50:53;;;;;;;6.43;2.17;;;21.20;96.10;;;;;;5028098;28;20029;-56
2022/09/14 10:53:39;;;;;;;6.78;1.98;;;21.10;95.70;;;;;;5029306;28;20030;-58
2022/09/14 10:56:12;;;;;;;6.13;1.88;;;20.90;94.10;;;;;;5023078;28;20545;-56
2022/09/14 10:58:56;;;;;;;9.15;2.50;;;20.70;95.20;;;;;;5029603;28;20104;-57
2022/09/14 11:01:28;;;;;;;13.27;4.47;;;20.70;94.80;;;;;;5029502;28;20045;-57
2022/09/14 11:04:17;;;;;;;7.97;2.90;;;20.70;95.90;;;;;;5028799;28;20099;-57
2022/09/14 11:06:52;;;;;;;9.25;1.92;;;20.70;95.20;;;;;;5028991;28;20021;-57
2022/09/14 11:09:23;;;;;;;4.50;1.67;;;20.20;96.00;;;;;;5031116;28;20022;-57
2022/09/14 11:12:12;;;;;;;5.07;1.98;;;20.20;96.50;;;;;;5040442;28;20013;-57
2022/09/14 11:15:00;;;;;;;6.35;2.30;;;20.10;96.50;;;;;;5048712;28;20481;-57
2022/09/14 11:17:59;;;;;;;9.65;2.13;;;20.30;95.60;;;;;;5048791;28;20032;-57
2022/09/14 11:20:29;;;;;;;8.88;2.17;;;20.30;96.30;;;;;;5041185;28;20228;-57
2022/09/14 11:23:26;;;;;;;9.90;2.28;;;20.50;95.00;;;;;;5044527;28;20021;-57
2022/09/14 11:26:03;;;;;;;5.95;1.60;;;20.50;95.30;;;;;;5048524;28;20028;-57
2022/09/14 11:28:41;;;;;;;6.07;2.00;;;20.50;94.30;;;;;;5048811;28;20036;-57
2022/09/14 11:31:25;;;;;;;6.07;1.90;;;20.50;94.40;;;;;;5044170;28;20086;-57
2022/09/14 11:34:08;;;;;;;5.28;2.15;;;20.60;96.20;;;;;;5043811;28;20025;-57
2022/09/14 11:36:43;;;;;;;9.20;2.20;;;20.60;96.90;;;;;;5033517;28;20032;-57
2022/09/14 11:39:29;;;;;;;7.75;2.05;;;20.70;96.80;;;;;;5028608;28;20158;-57
2022/09/14 11:42:04;;;;;;;6.45;2.10;;;20.70;95.50;;;;;;5028398;28;20548;-57
2022/09/14 11:44:39;;;;;;;4.78;2.00;;;20.70;95.20;;;;;;5023635;28;20562;-57
2022/09/14 11:47:07;;;;;;;7.03;2.78;;;20.90;95.30;;;;;;5027058;28;20021;-57
2022/09/14 11:49:40;;;;;;;10.48;2.00;;;20.90;94.80;;;;;;5028045;28;20090;-57
2022/09/14 11:52:20;;;;;;;8.07;2.30;;;21.20;94.70;;;;;;5028284;28;20092;-57
2022/09/14 11:54:47;;;;;;;6.90;1.70;;;21.60;94.30;;;;;;5026837;28;20383;-55
2022/09/14 11:57:19;;;;;;;5.10;1.92;;;22.00;93.80;;;;;;5037055;28;20447;-56
2022/09/14 11:59:52;;;;;;;4.07;1.95;;;22.10;93.30;;;;;;5026014;28;20057;-55
2022/09/14 12:02:23;;;;;;;5.70;2.00;;;22.30;93.60;;;;;;5023034;28;20104;-56
2022/09/14 12:05:08;;;;;;;4.93;1.67;;;22.10;93.30;;;;;;5039322;28;20233;-56
2022/09/14 12:07:41;;;;;;;6.00;1.77;;;22.00;93.00;;;;;;5039191;28;20021;-56
2022/09/14 12:10:19;;;;;;;7.93;1.90;;;22.00;93.10;;;;;;5024838;28;20034;-56
2022/09/14 12:12:44;;;;;;;5.90;2.03;;;21.80;93.10;;;;;;5026482;28;20014;-56
2022/09/14 12:15:25;;;;;;;7.45;2.05;;;21.50;93.00;;;;;;5034733;28;20528;-56
2022/09/14 12:18:12;;;;;;;6.78;1.73;;;21.20;94.20;;;;;;5042253;28;20032;-56
2022/09/14 12:20:45;;;;;;;8.23;3.53;;;21.10;93.80;;;;;;5037811;28;20043;-56
2022/09/14 12:23:19;;;;;;;5.93;2.78;;;20.80;92.50;;;;;;5045980;28;20063;-55
2022/09/14 12:25:59;;;;;;;6.10;1.92;;;20.30;91.20;;;;;;5044616;28;20426;-55
2022/09/14 12:28:38;;;;;;;5.97;1.98;;;20.30;92.50;;;;;;5026886;28;20041;-56
2022/09/14 12:31:11;;;;;;;9.23;2.33;;;20.30;93.10;;;;;;5037127;28;20021;-55
2022/09/14 12:33:36;;;;;;;10.32;2.20;;;20.20;94.70;;;;;;5045019;28;20108;-55
2022/09/14 12:36:09;;;;;;;4.18;1.40;;;20.00;94.50;;;;;;5017191;28;20104;-56
2022/09/14 12:38:51;;;;;;;5.50;1.40;;;19.90;95.20;;;;;;5034742;28;20029;-56
2022/09/14 12:41:19;;;;;;;3.75;1.75;;;20.00;95.60;;;;;;5046849;28;20060;-57
2022/09/14 12:43:45;;;;;;;8.73;1.92;;;20.00;96.10;;;;;;5027791;28;20021;-56
2022/09/14 12:46:20;;;;;;;5.55;1.85;;;20.00;95.90;;;;;;5037378;28;20022;-55
2022/09/14 12:48:49;;;;;;;6.80;2.08;;;19.90;96.60;;;;;;5046329;28;20021;-55
2022/09/14 12:51:49;;;;;;;5.22;2.20;;;19.90;96.10;;;;;;5037653;28;20344;-56
2022/09/14 12:54:27;;;;;;;8.18;1.88;;;19.90;97.00;;;;;;5047769;28;20096;-56
2022/09/14 12:57:27;;;;;;;9.00;2.17;;;19.70;95.40;;;;;;5034926;28;20360;-56
2022/09/14 13:00:01;;;;;;;4.72;1.70;;;19.60;96.30;;;;;;5017655;28;20030;-57
2022/09/14 13:02:49;;;;;;;10.13;2.10;;;19.60;97.10;;;;;;5015256;28;20054;-57
2022/09/14 13:05:19;;;;;;;6.47;1.75;;;19.50;96.70;;;;;;5026524;28;20029;-56